Terminal Aerodrome Forecast
Issued by NWS Grand Forks, ND

Home | Current Version | Previous Version | Text Only | Print | Product List | Glossary Off
Versions: 1 2 3 4 5 6 7 8 9 10 11 12 13 14 15 16

708
FTUS43 KFGF 242329
TAFFAR
TAF
KFAR 242329Z 2500/2524 15012G20KT P6SM FEW040 BKN150
     FM250400 15010KT P6SM BKN120
     FM251100 15008KT P6SM VCTS BKN035CB OVC100
     FM251300 16008KT P6SM BKN120
     FM251700 22010KT P6SM SCT220=

USA.gov is the U.S. government's official web portal to all federal, state and local government web resources and services.